sensor_id;sensor_type;location;lat;lon;timestamp;temperature;humidity
8178;DHT22;4130;48.740;9.132;2023-08-24T00:00:20;19.30;99.90
8178;DHT22;4130;48.740;9.132;2023-08-24T00:02:47;18.80;99.90
8178;DHT22;4130;48.740;9.132;2023-08-24T00:05:14;18.70;99.90
8178;DHT22;4130;48.740;9.132;2023-08-24T00:07:41;18.70;99.90
8178;DHT22;4130;48.740;9.132;2023-08-24T00:10:09;18.70;99.90
8178;DHT22;4130;48.740;9.132;2023-08-24T00:12:37;18.70;99.90
8178;DHT22;4130;48.740;9.132;2023-08-24T00:15:07;18.70;99.90
8178;DHT22;4130;48.740;9.132;2023-08-24T00:17:34;18.60;99.90
8178;DHT22;4130;48.740;9.132;2023-08-24T00:20:01;18.60;99.90
8178;DHT22;4130;48.740;9.132;2023-08-24T00:22:29;18.60;99.90
8178;DHT22;4130;48.740;9.132;2023-08-24T00:24:56;18.60;99.90
8178;DHT22;4130;48.740;9.132;2023-08-24T00:27:23;18.50;99.90
8178;DHT22;4130;48.740;9.132;2023-08-24T00:29:51;18.60;99.90
8178;DHT22;4130;48.740;9.132;2023-08-24T00:32:18;18.50;99.90
8178;DHT22;4130;48.740;9.132;2023-08-24T00:34:45;18.60;99.90
8178;DHT22;4130;48.740;9.132;2023-08-24T00:37:12;18.50;99.90
8178;DHT22;4130;48.740;9.132;2023-08-24T00:39:39;18.60;99.90
8178;DHT22;4130;48.740;9.132;2023-08-24T00:42:06;18.50;99.90
8178;DHT22;4130;48.740;9.132;2023-08-24T00:44:34;18.40;99.90
8178;DHT22;4130;48.740;9.132;2023-08-24T00:47:02;18.90;99.90
8178;DHT22;4130;48.740;9.132;2023-08-24T00:49:29;18.40;99.90
8178;DHT22;4130;48.740;9.132;2023-08-24T00:51:56;18.40;99.90
8178;DHT22;4130;48.740;9.132;2023-08-24T00:54:22;18.40;99.90
8178;DHT22;4130;48.740;9.132;2023-08-24T00:56:49;18.40;99.90
8178;DHT22;4130;48.740;9.132;2023-08-24T00:59:16;18.40;99.90
8178;DHT22;4130;48.740;9.132;2023-08-24T01:01:45;18.30;99.90
8178;DHT22;4130;48.740;9.132;2023-08-24T01:04:14;18.30;99.90
8178;DHT22;4130;48.740;9.132;2023-08-24T01:06:41;18.30;99.90
8178;DHT22;4130;48.740;9.132;2023-08-24T01:09:08;18.80;99.90
8178;DHT22;4130;48.740;9.132;2023-08-24T01:11:45;18.30;99.90
8178;DHT22;4130;48.740;9.132;2023-08-24T01:14:23;18.30;99.90
8178;DHT22;4130;48.740;9.132;2023-08-24T01:16:51;18.20;99.90
8178;DHT22;4130;48.740;9.132;2023-08-24T01:19:34;19.40;99.90
8178;DHT22;4130;48.740;9.132;2023-08-24T01:22:02;18.20;99.90
8178;DHT22;4130;48.740;9.132;2023-08-24T01:24:39;18.20;99.90
8178;DHT22;4130;48.740;9.132;2023-08-24T01:27:10;18.20;99.90
8178;DHT22;4130;48.740;9.132;2023-08-24T01:29:38;18.20;99.90
8178;DHT22;4130;48.740;9.132;2023-08-24T01:32:09;18.20;99.90
8178;DHT22;4130;48.740;9.132;2023-08-24T01:34:37;18.20;99.90
8178;DHT22;4130;48.740;9.132;2023-08-24T01:37:04;18.20;99.90
8178;DHT22;4130;48.740;9.132;2023-08-24T01:39:37;18.10;99.90
8178;DHT22;4130;48.740;9.132;2023-08-24T01:42:13;18.50;99.90
8178;DHT22;4130;48.740;9.132;2023-08-24T01:44:47;18.10;99.90
8178;DHT22;4130;48.740;9.132;2023-08-24T01:47:14;18.10;99.90
8178;DHT22;4130;48.740;9.132;2023-08-24T01:49:42;18.10;99.90
8178;DHT22;4130;48.740;9.132;2023-08-24T01:52:10;18.20;99.90
8178;DHT22;4130;48.740;9.132;2023-08-24T01:54:36;18.00;99.90
8178;DHT22;4130;48.740;9.132;2023-08-24T01:57:04;18.00;99.90
8178;DHT22;4130;48.740;9.132;2023-08-24T01:59:33;18.00;99.90
8178;DHT22;4130;48.740;9.132;2023-08-24T02:01:59;18.00;99.90
8178;DHT22;4130;48.740;9.132;2023-08-24T02:04:26;18.80;99.90
8178;DHT22;4130;48.740;9.132;2023-08-24T02:06:53;18.00;99.90
8178;DHT22;4130;48.740;9.132;2023-08-24T02:09:20;18.00;99.90
8178;DHT22;4130;48.740;9.132;2023-08-24T02:11:47;18.00;99.90
8178;DHT22;4130;48.740;9.132;2023-08-24T02:14:14;18.00;99.90
8178;DHT22;4130;48.740;9.132;2023-08-24T02:16:42;17.90;99.90
8178;DHT22;4130;48.740;9.132;2023-08-24T02:19:08;17.90;99.90
8178;DHT22;4130;48.740;9.132;2023-08-24T02:21:35;17.90;99.90
8178;DHT22;4130;48.740;9.132;2023-08-24T02:24:03;19.00;99.90
8178;DHT22;4130;48.740;9.132;2023-08-24T02:26:30;17.80;99.90
8178;DHT22;4130;48.740;9.132;2023-08-24T02:28:57;17.80;99.90
8178;DHT22;4130;48.740;9.132;2023-08-24T02:31:24;17.70;99.90
8178;DHT22;4130;48.740;9.132;2023-08-24T02:33:52;17.70;99.90
8178;DHT22;4130;48.740;9.132;2023-08-24T02:36:19;17.70;99.90
8178;DHT22;4130;48.740;9.132;2023-08-24T02:38:46;17.70;99.90
8178;DHT22;4130;48.740;9.132;2023-08-24T02:41:13;19.20;99.90
8178;DHT22;4130;48.740;9.132;2023-08-24T02:43:40;17.70;99.90
8178;DHT22;4130;48.740;9.132;2023-08-24T02:46:08;17.70;99.90
8178;DHT22;4130;48.740;9.132;2023-08-24T02:48:35;17.70;99.90
8178;DHT22;4130;48.740;9.132;2023-08-24T02:51:04;17.70;99.90
8178;DHT22;4130;48.740;9.132;2023-08-24T02:53:32;17.80;99.90
8178;DHT22;4130;48.740;9.132;2023-08-24T02:55:58;17.80;99.90
8178;DHT22;4130;48.740;9.132;2023-08-24T02:58:25;17.90;99.90
8178;DHT22;4130;48.740;9.132;2023-08-24T03:00:52;17.90;99.90
8178;DHT22;4130;48.740;9.132;2023-08-24T03:03:19;18.00;99.90
8178;DHT22;4130;48.740;9.132;2023-08-24T03:05:54;18.00;99.90
8178;DHT22;4130;48.740;9.132;2023-08-24T03:08:22;19.20;99.90
8178;DHT22;4130;48.740;9.132;2023-08-24T03:10:49;17.90;99.90
8178;DHT22;4130;48.740;9.132;2023-08-24T03:13:16;17.80;99.90
8178;DHT22;4130;48.740;9.132;2023-08-24T03:15:42;17.80;99.90
8178;DHT22;4130;48.740;9.132;2023-08-24T03:18:10;18.10;99.90
8178;DHT22;4130;48.740;9.132;2023-08-24T03:20:37;17.80;99.90
8178;DHT22;4130;48.740;9.132;2023-08-24T03:23:04;17.80;99.90
8178;DHT22;4130;48.740;9.132;2023-08-24T03:25:35;18.40;99.90
8178;DHT22;4130;48.740;9.132;2023-08-24T03:28:03;17.80;99.90
8178;DHT22;4130;48.740;9.132;2023-08-24T03:30:30;17.80;99.90
8178;DHT22;4130;48.740;9.132;2023-08-24T03:32:57;17.70;99.90
8178;DHT22;4130;48.740;9.132;2023-08-24T03:35:24;17.70;99.90
8178;DHT22;4130;48.740;9.132;2023-08-24T03:37:51;17.70;99.90
8178;DHT22;4130;48.740;9.132;2023-08-24T03:40:18;17.70;99.90
8178;DHT22;4130;48.740;9.132;2023-08-24T03:42:47;17.70;99.90
8178;DHT22;4130;48.740;9.132;2023-08-24T03:45:14;17.70;99.90
8178;DHT22;4130;48.740;9.132;2023-08-24T03:47:41;17.80;99.90
8178;DHT22;4130;48.740;9.132;2023-08-24T03:50:08;17.80;99.90
8178;DHT22;4130;48.740;9.132;2023-08-24T03:52:34;17.80;99.90
8178;DHT22;4130;48.740;9.132;2023-08-24T03:55:01;17.80;99.90
8178;DHT22;4130;48.740;9.132;2023-08-24T03:57:28;17.90;99.90
8178;DHT22;4130;48.740;9.132;2023-08-24T03:59:57;18.00;99.90
8178;DHT22;4130;48.740;9.132;2023-08-24T04:02:23;17.50;99.90
8178;DHT22;4130;48.740;9.132;2023-08-24T04:04:50;18.00;99.90
8178;DHT22;4130;48.740;9.132;2023-08-24T04:07:17;18.10;99.90
8178;DHT22;4130;48.740;9.132;2023-08-24T04:09:44;18.00;99.90
8178;DHT22;4130;48.740;9.132;2023-08-24T04:12:11;18.10;99.90
8178;DHT22;4130;48.740;9.132;2023-08-24T04:14:38;18.00;99.90
8178;DHT22;4130;48.740;9.132;2023-08-24T04:17:06;19.70;99.90
8178;DHT22;4130;48.740;9.132;2023-08-24T04:19:32;18.00;99.90
8178;DHT22;4130;48.740;9.132;2023-08-24T04:21:59;18.00;99.90
8178;DHT22;4130;48.740;9.132;2023-08-24T04:24:26;18.00;99.90
8178;DHT22;4130;48.740;9.132;2023-08-24T04:26:53;18.10;99.90
8178;DHT22;4130;48.740;9.132;2023-08-24T04:29:19;18.60;99.90
8178;DHT22;4130;48.740;9.132;2023-08-24T04:31:46;18.10;99.90
8178;DHT22;4130;48.740;9.132;2023-08-24T04:34:14;18.20;99.90
8178;DHT22;4130;48.740;9.132;2023-08-24T04:36:41;18.20;99.90
8178;DHT22;4130;48.740;9.132;2023-08-24T04:39:08;18.10;99.90
8178;DHT22;4130;48.740;9.132;2023-08-24T04:41:36;18.20;99.90
8178;DHT22;4130;48.740;9.132;2023-08-24T04:44:03;18.10;99.90
8178;DHT22;4130;48.740;9.132;2023-08-24T04:46:29;18.20;99.90
8178;DHT22;4130;48.740;9.132;2023-08-24T04:48:56;18.60;99.90
8178;DHT22;4130;48.740;9.132;2023-08-24T04:51:24;18.20;99.90
8178;DHT22;4130;48.740;9.132;2023-08-24T04:53:53;18.20;99.90
8178;DHT22;4130;48.740;9.132;2023-08-24T04:56:20;19.00;99.90
8178;DHT22;4130;48.740;9.132;2023-08-24T04:58:53;18.10;99.90
8178;DHT22;4130;48.740;9.132;2023-08-24T05:01:22;18.10;99.90
8178;DHT22;4130;48.740;9.132;2023-08-24T05:03:50;18.20;99.90
8178;DHT22;4130;48.740;9.132;2023-08-24T05:06:17;18.20;99.90
8178;DHT22;4130;48.740;9.132;2023-08-24T05:08:45;18.30;99.90
8178;DHT22;4130;48.740;9.132;2023-08-24T05:11:13;18.50;99.90
8178;DHT22;4130;48.740;9.132;2023-08-24T05:13:40;18.40;99.90
8178;DHT22;4130;48.740;9.132;2023-08-24T05:16:07;18.50;99.90
8178;DHT22;4130;48.740;9.132;2023-08-24T05:18:34;18.60;99.90
8178;DHT22;4130;48.740;9.132;2023-08-24T05:21:01;18.60;99.90
8178;DHT22;4130;48.740;9.132;2023-08-24T05:23:28;18.70;99.90
8178;DHT22;4130;48.740;9.132;2023-08-24T05:25:58;18.80;99.90
8178;DHT22;4130;48.740;9.132;2023-08-24T05:28:25;18.90;99.90
8178;DHT22;4130;48.740;9.132;2023-08-24T05:30:52;18.90;99.90
8178;DHT22;4130;48.740;9.132;2023-08-24T05:33:19;19.80;99.90
8178;DHT22;4130;48.740;9.132;2023-08-24T05:35:46;19.10;99.90
8178;DHT22;4130;48.740;9.132;2023-08-24T05:38:14;19.10;99.90
8178;DHT22;4130;48.740;9.132;2023-08-24T05:40:42;20.30;99.90
8178;DHT22;4130;48.740;9.132;2023-08-24T05:43:10;19.20;99.90
8178;DHT22;4130;48.740;9.132;2023-08-24T05:45:37;19.30;99.90
8178;DHT22;4130;48.740;9.132;2023-08-24T05:48:06;20.70;99.90
8178;DHT22;4130;48.740;9.132;2023-08-24T05:50:32;19.50;99.90
8178;DHT22;4130;48.740;9.132;2023-08-24T05:52:59;21.20;99.90
8178;DHT22;4130;48.740;9.132;2023-08-24T05:55:26;19.70;99.90
8178;DHT22;4130;48.740;9.132;2023-08-24T05:57:52;19.80;99.90
8178;DHT22;4130;48.740;9.132;2023-08-24T06:00:21;19.90;99.90
8178;DHT22;4130;48.740;9.132;2023-08-24T06:02:48;20.00;99.90
8178;DHT22;4130;48.740;9.132;2023-08-24T06:05:15;20.10;99.90
8178;DHT22;4130;48.740;9.132;2023-08-24T06:07:43;20.20;99.90
8178;DHT22;4130;48.740;9.132;2023-08-24T06:10:10;20.30;99.90
8178;DHT22;4130;48.740;9.132;2023-08-24T06:12:37;20.50;99.90
8178;DHT22;4130;48.740;9.132;2023-08-24T06:15:04;20.60;99.90
8178;DHT22;4130;48.740;9.132;2023-08-24T06:17:34;20.60;99.90
8178;DHT22;4130;48.740;9.132;2023-08-24T06:20:01;20.70;99.90
8178;DHT22;4130;48.740;9.132;2023-08-24T06:22:29;21.30;99.90
8178;DHT22;4130;48.740;9.132;2023-08-24T06:24:55;20.80;99.90
8178;DHT22;4130;48.740;9.132;2023-08-24T06:27:25;20.80;99.90
8178;DHT22;4130;48.740;9.132;2023-08-24T06:29:52;21.20;99.90
8178;DHT22;4130;48.740;9.132;2023-08-24T06:32:18;20.90;99.90
8178;DHT22;4130;48.740;9.132;2023-08-24T06:34:46;20.90;99.90
8178;DHT22;4130;48.740;9.132;2023-08-24T06:37:13;21.50;99.90
8178;DHT22;4130;48.740;9.132;2023-08-24T06:39:40;22.00;99.90
8178;DHT22;4130;48.740;9.132;2023-08-24T06:42:07;21.80;99.90
8178;DHT22;4130;48.740;9.132;2023-08-24T06:44:34;20.90;99.90
8178;DHT22;4130;48.740;9.132;2023-08-24T06:47:01;21.80;99.90
8178;DHT22;4130;48.740;9.132;2023-08-24T06:49:28;22.30;99.90
8178;DHT22;4130;48.740;9.132;2023-08-24T06:51:56;21.10;99.90
8178;DHT22;4130;48.740;9.132;2023-08-24T06:54:23;20.90;99.90
8178;DHT22;4130;48.740;9.132;2023-08-24T06:56:50;21.00;99.90
8178;DHT22;4130;48.740;9.132;2023-08-24T06:59:16;21.20;99.90
8178;DHT22;4130;48.740;9.132;2023-08-24T07:01:44;21.80;99.90
8178;DHT22;4130;48.740;9.132;2023-08-24T07:04:12;22.00;99.90
8178;DHT22;4130;48.740;9.132;2023-08-24T07:06:39;21.30;99.90
8178;DHT22;4130;48.740;9.132;2023-08-24T07:09:09;21.70;99.90
8178;DHT22;4130;48.740;9.132;2023-08-24T07:11:36;21.60;99.90
8178;DHT22;4130;48.740;9.132;2023-08-24T07:14:03;23.10;99.90
8178;DHT22;4130;48.740;9.132;2023-08-24T07:16:30;22.10;99.90
8178;DHT22;4130;48.740;9.132;2023-08-24T07:18:57;23.10;99.90
8178;DHT22;4130;48.740;9.132;2023-08-24T07:21:24;22.50;99.90
8178;DHT22;4130;48.740;9.132;2023-08-24T07:23:51;23.10;99.90
8178;DHT22;4130;48.740;9.132;2023-08-24T07:26:19;22.50;99.90
8178;DHT22;4130;48.740;9.132;2023-08-24T07:28:46;22.50;99.90
8178;DHT22;4130;48.740;9.132;2023-08-24T07:31:13;22.50;99.90
8178;DHT22;4130;48.740;9.132;2023-08-24T07:33:40;22.70;99.90
8178;DHT22;4130;48.740;9.132;2023-08-24T07:36:09;22.60;99.90
8178;DHT22;4130;48.740;9.132;2023-08-24T07:38:36;22.60;99.90
8178;DHT22;4130;48.740;9.132;2023-08-24T07:41:02;22.60;99.90
8178;DHT22;4130;48.740;9.132;2023-08-24T07:43:31;22.50;99.90
8178;DHT22;4130;48.740;9.132;2023-08-24T07:45:57;22.50;99.90
8178;DHT22;4130;48.740;9.132;2023-08-24T07:48:24;23.20;99.90
8178;DHT22;4130;48.740;9.132;2023-08-24T07:50:51;22.80;99.90
8178;DHT22;4130;48.740;9.132;2023-08-24T07:53:18;23.30;99.90
8178;DHT22;4130;48.740;9.132;2023-08-24T07:55:45;22.60;99.90
8178;DHT22;4130;48.740;9.132;2023-08-24T07:58:20;22.70;99.90
8178;DHT22;4130;48.740;9.132;2023-08-24T08:00:50;22.80;99.90
8178;DHT22;4130;48.740;9.132;2023-08-24T08:03:17;23.10;99.90
8178;DHT22;4130;48.740;9.132;2023-08-24T08:05:44;23.20;99.90
8178;DHT22;4130;48.740;9.132;2023-08-24T08:08:11;23.50;99.90
8178;DHT22;4130;48.740;9.132;2023-08-24T08:10:38;23.40;99.90
8178;DHT22;4130;48.740;9.132;2023-08-24T08:13:06;23.50;99.90
8178;DHT22;4130;48.740;9.132;2023-08-24T08:15:33;23.70;99.90
8178;DHT22;4130;48.740;9.132;2023-08-24T08:18:03;23.70;99.90
8178;DHT22;4130;48.740;9.132;2023-08-24T08:20:30;23.70;99.90
8178;DHT22;4130;48.740;9.132;2023-08-24T08:22:56;23.80;99.90
8178;DHT22;4130;48.740;9.132;2023-08-24T08:25:23;24.30;99.90
8178;DHT22;4130;48.740;9.132;2023-08-24T08:27:50;25.00;99.90
8178;DHT22;4130;48.740;9.132;2023-08-24T08:30:17;24.70;99.90
8178;DHT22;4130;48.740;9.132;2023-08-24T08:32:45;24.40;99.90
8178;DHT22;4130;48.740;9.132;2023-08-24T08:35:13;24.70;99.90
8178;DHT22;4130;48.740;9.132;2023-08-24T08:37:40;24.90;99.30
8178;DHT22;4130;48.740;9.132;2023-08-24T08:40:10;25.20;99.20
8178;DHT22;4130;48.740;9.132;2023-08-24T08:42:37;25.50;98.70
8178;DHT22;4130;48.740;9.132;2023-08-24T08:45:09;25.90;98.20
8178;DHT22;4130;48.740;9.132;2023-08-24T08:47:36;25.90;98.50
8178;DHT22;4130;48.740;9.132;2023-08-24T08:50:04;26.10;98.30
8178;DHT22;4130;48.740;9.132;2023-08-24T08:52:32;26.30;97.10
8178;DHT22;4130;48.740;9.132;2023-08-24T08:54:59;26.40;97.40
8178;DHT22;4130;48.740;9.132;2023-08-24T08:57:26;26.40;97.30
8178;DHT22;4130;48.740;9.132;2023-08-24T08:59:53;26.60;97.20
8178;DHT22;4130;48.740;9.132;2023-08-24T09:02:21;26.90;96.70
8178;DHT22;4130;48.740;9.132;2023-08-24T09:04:51;27.30;96.70
8178;DHT22;4130;48.740;9.132;2023-08-24T09:07:18;27.80;95.70
8178;DHT22;4130;48.740;9.132;2023-08-24T09:09:47;27.90;94.70
8178;DHT22;4130;48.740;9.132;2023-08-24T09:12:14;28.10;95.40
8178;DHT22;4130;48.740;9.132;2023-08-24T09:14:41;28.30;94.60
8178;DHT22;4130;48.740;9.132;2023-08-24T09:17:08;28.50;94.70
8178;DHT22;4130;48.740;9.132;2023-08-24T09:19:35;28.40;94.30
8178;DHT22;4130;48.740;9.132;2023-08-24T09:22:04;28.90;93.90
8178;DHT22;4130;48.740;9.132;2023-08-24T09:24:31;29.00;93.20
8178;DHT22;4130;48.740;9.132;2023-08-24T09:27:14;29.00;93.10
8178;DHT22;4130;48.740;9.132;2023-08-24T09:29:41;29.20;93.60
8178;DHT22;4130;48.740;9.132;2023-08-24T09:32:08;29.60;93.10
8178;DHT22;4130;48.740;9.132;2023-08-24T09:34:36;29.70;93.30
8178;DHT22;4130;48.740;9.132;2023-08-24T09:37:03;30.00;92.60
8178;DHT22;4130;48.740;9.132;2023-08-24T09:39:30;30.20;92.10
8178;DHT22;4130;48.740;9.132;2023-08-24T09:42:01;30.30;92.00
8178;DHT22;4130;48.740;9.132;2023-08-24T09:44:30;30.60;92.30
8178;DHT22;4130;48.740;9.132;2023-08-24T09:46:57;31.00;91.60
8178;DHT22;4130;48.740;9.132;2023-08-24T09:49:23;30.90;91.60
8178;DHT22;4130;48.740;9.132;2023-08-24T09:51:55;31.00;91.60
8178;DHT22;4130;48.740;9.132;2023-08-24T09:54:26;31.00;90.90
8178;DHT22;4130;48.740;9.132;2023-08-24T09:56:54;31.10;90.80
8178;DHT22;4130;48.740;9.132;2023-08-24T09:59:22;31.00;91.20
8178;DHT22;4130;48.740;9.132;2023-08-24T10:01:54;31.10;91.40
8178;DHT22;4130;48.740;9.132;2023-08-24T10:04:29;31.40;90.50
8178;DHT22;4130;48.740;9.132;2023-08-24T10:07:02;31.50;91.30
8178;DHT22;4130;48.740;9.132;2023-08-24T10:09:44;31.60;90.50
8178;DHT22;4130;48.740;9.132;2023-08-24T10:12:13;31.60;90.80
8178;DHT22;4130;48.740;9.132;2023-08-24T10:14:47;31.80;90.60
8178;DHT22;4130;48.740;9.132;2023-08-24T10:17:16;31.90;90.00
8178;DHT22;4130;48.740;9.132;2023-08-24T10:19:43;31.90;90.20
8178;DHT22;4130;48.740;9.132;2023-08-24T10:22:11;31.90;90.30
8178;DHT22;4130;48.740;9.132;2023-08-24T10:24:39;32.30;90.40
8178;DHT22;4130;48.740;9.132;2023-08-24T10:27:09;32.70;90.40
8178;DHT22;4130;48.740;9.132;2023-08-24T10:29:36;32.70;88.80
8178;DHT22;4130;48.740;9.132;2023-08-24T10:32:05;32.70;90.00
8178;DHT22;4130;48.740;9.132;2023-08-24T10:34:32;32.70;89.20
8178;DHT22;4130;48.740;9.132;2023-08-24T10:37:07;32.90;89.80
8178;DHT22;4130;48.740;9.132;2023-08-24T10:39:35;32.60;89.70
8178;DHT22;4130;48.740;9.132;2023-08-24T10:42:04;32.40;90.30
8178;DHT22;4130;48.740;9.132;2023-08-24T10:44:36;32.40;90.20
8178;DHT22;4130;48.740;9.132;2023-08-24T10:47:10;32.60;90.40
8178;DHT22;4130;48.740;9.132;2023-08-24T10:49:38;32.50;90.40
8178;DHT22;4130;48.740;9.132;2023-08-24T10:52:20;32.60;90.00
8178;DHT22;4130;48.740;9.132;2023-08-24T10:54:48;32.80;90.30
8178;DHT22;4130;48.740;9.132;2023-08-24T10:57:20;32.90;90.20
8178;DHT22;4130;48.740;9.132;2023-08-24T10:59:58;33.20;89.90
8178;DHT22;4130;48.740;9.132;2023-08-24T11:02:27;33.20;90.40
8178;DHT22;4130;48.740;9.132;2023-08-24T11:05:04;33.30;90.60
8178;DHT22;4130;48.740;9.132;2023-08-24T11:07:32;33.60;90.40
8178;DHT22;4130;48.740;9.132;2023-08-24T11:09:58;33.40;90.20
8178;DHT22;4130;48.740;9.132;2023-08-24T11:12:26;33.10;90.30
8178;DHT22;4130;48.740;9.132;2023-08-24T11:14:53;33.20;90.00
8178;DHT22;4130;48.740;9.132;2023-08-24T11:17:24;33.50;90.50
8178;DHT22;4130;48.740;9.132;2023-08-24T11:20:00;33.70;90.40
8178;DHT22;4130;48.740;9.132;2023-08-24T11:22:27;33.90;90.20
8178;DHT22;4130;48.740;9.132;2023-08-24T11:24:54;34.20;90.10
8178;DHT22;4130;48.740;9.132;2023-08-24T11:27:21;34.20;90.10
8178;DHT22;4130;48.740;9.132;2023-08-24T11:30:00;33.90;89.90
8178;DHT22;4130;48.740;9.132;2023-08-24T11:32:30;33.80;89.90
8178;DHT22;4130;48.740;9.132;2023-08-24T11:34:59;33.70;89.80
8178;DHT22;4130;48.740;9.132;2023-08-24T11:37:26;33.50;90.10
8178;DHT22;4130;48.740;9.132;2023-08-24T11:39:53;33.90;90.00
8178;DHT22;4130;48.740;9.132;2023-08-24T11:42:19;34.20;89.90
8178;DHT22;4130;48.740;9.132;2023-08-24T11:44:48;34.40;89.10
8178;DHT22;4130;48.740;9.132;2023-08-24T11:47:15;34.40;88.00
8178;DHT22;4130;48.740;9.132;2023-08-24T11:49:43;34.40;90.10
8178;DHT22;4130;48.740;9.132;2023-08-24T11:52:11;34.40;88.40
8178;DHT22;4130;48.740;9.132;2023-08-24T11:54:41;34.60;88.50
8178;DHT22;4130;48.740;9.132;2023-08-24T11:57:09;34.70;88.60
8178;DHT22;4130;48.740;9.132;2023-08-24T11:59:37;34.70;87.80
8178;DHT22;4130;48.740;9.132;2023-08-24T12:02:08;34.60;89.10
8178;DHT22;4130;48.740;9.132;2023-08-24T12:04:39;34.40;88.50
8178;DHT22;4130;48.740;9.132;2023-08-24T12:07:12;33.90;88.70
8178;DHT22;4130;48.740;9.132;2023-08-24T12:09:42;33.70;88.60
8178;DHT22;4130;48.740;9.132;2023-08-24T12:12:12;33.60;88.80
8178;DHT22;4130;48.740;9.132;2023-08-24T12:14:43;33.50;88.60
8178;DHT22;4130;48.740;9.132;2023-08-24T12:17:10;33.40;90.40
8178;DHT22;4130;48.740;9.132;2023-08-24T12:19:41;33.30;89.10
8178;DHT22;4130;48.740;9.132;2023-08-24T12:22:13;33.20;89.60
8178;DHT22;4130;48.740;9.132;2023-08-24T12:24:43;33.20;89.60
8178;DHT22;4130;48.740;9.132;2023-08-24T12:27:17;33.40;89.30
8178;DHT22;4130;48.740;9.132;2023-08-24T12:29:45;33.80;88.90
8178;DHT22;4130;48.740;9.132;2023-08-24T12:32:12;34.10;89.10
8178;DHT22;4130;48.740;9.132;2023-08-24T12:34:40;34.40;89.60
8178;DHT22;4130;48.740;9.132;2023-08-24T12:37:08;34.70;88.00
8178;DHT22;4130;48.740;9.132;2023-08-24T12:39:37;35.00;88.30
8178;DHT22;4130;48.740;9.132;2023-08-24T12:42:04;35.00;87.20
8178;DHT22;4130;48.740;9.132;2023-08-24T12:44:31;35.20;87.40
8178;DHT22;4130;48.740;9.132;2023-08-24T12:46:59;35.00;88.20
8178;DHT22;4130;48.740;9.132;2023-08-24T12:49:26;34.90;86.90
8178;DHT22;4130;48.740;9.132;2023-08-24T12:51:53;35.00;86.50
8178;DHT22;4130;48.740;9.132;2023-08-24T12:54:20;35.20;87.50
8178;DHT22;4130;48.740;9.132;2023-08-24T12:56:49;35.10;86.50
8178;DHT22;4130;48.740;9.132;2023-08-24T12:59:15;35.20;85.50
8178;DHT22;4130;48.740;9.132;2023-08-24T13:01:42;35.30;86.30
8178;DHT22;4130;48.740;9.132;2023-08-24T13:04:09;35.30;86.40
8178;DHT22;4130;48.740;9.132;2023-08-24T13:06:36;35.60;87.10
8178;DHT22;4130;48.740;9.132;2023-08-24T13:09:03;36.00;86.30
8178;DHT22;4130;48.740;9.132;2023-08-24T13:11:31;36.20;85.20
8178;DHT22;4130;48.740;9.132;2023-08-24T13:14:00;36.40;86.00
8178;DHT22;4130;48.740;9.132;2023-08-24T13:16:26;36.60;83.50
8178;DHT22;4130;48.740;9.132;2023-08-24T13:18:54;36.50;84.70
8178;DHT22;4130;48.740;9.132;2023-08-24T13:21:21;36.60;83.30
8178;DHT22;4130;48.740;9.132;2023-08-24T13:23:48;36.30;82.90
8178;DHT22;4130;48.740;9.132;2023-08-24T13:26:18;35.90;83.50
8178;DHT22;4130;48.740;9.132;2023-08-24T13:28:45;35.80;84.20
8178;DHT22;4130;48.740;9.132;2023-08-24T13:31:14;35.70;83.10
8178;DHT22;4130;48.740;9.132;2023-08-24T13:33:41;35.80;83.60
8178;DHT22;4130;48.740;9.132;2023-08-24T13:36:08;35.70;81.70
8178;DHT22;4130;48.740;9.132;2023-08-24T13:38:34;35.40;82.60
8178;DHT22;4130;48.740;9.132;2023-08-24T13:41:02;35.30;82.60
8178;DHT22;4130;48.740;9.132;2023-08-24T13:43:29;35.40;83.30
8178;DHT22;4130;48.740;9.132;2023-08-24T13:45:57;35.20;82.40
8178;DHT22;4130;48.740;9.132;2023-08-24T13:48:25;35.10;82.40
8178;DHT22;4130;48.740;9.132;2023-08-24T13:50:52;34.80;83.70
8178;DHT22;4130;48.740;9.132;2023-08-24T13:53:19;34.70;83.60
8178;DHT22;4130;48.740;9.132;2023-08-24T13:55:46;34.70;81.80
8178;DHT22;4130;48.740;9.132;2023-08-24T13:58:13;34.60;82.60
8178;DHT22;4130;48.740;9.132;2023-08-24T14:00:40;34.50;81.20
8178;DHT22;4130;48.740;9.132;2023-08-24T14:03:07;34.50;80.90
8178;DHT22;4130;48.740;9.132;2023-08-24T14:05:39;34.60;80.90
8178;DHT22;4130;48.740;9.132;2023-08-24T14:08:06;34.60;80.40
8178;DHT22;4130;48.740;9.132;2023-08-24T14:10:34;34.60;79.90
8178;DHT22;4130;48.740;9.132;2023-08-24T14:13:01;34.60;79.70
8178;DHT22;4130;48.740;9.132;2023-08-24T14:15:28;34.50;79.80
8178;DHT22;4130;48.740;9.132;2023-08-24T14:17:55;34.40;80.10
8178;DHT22;4130;48.740;9.132;2023-08-24T14:20:22;34.30;80.00
8178;DHT22;4130;48.740;9.132;2023-08-24T14:22:50;33.90;80.90
8178;DHT22;4130;48.740;9.132;2023-08-24T14:25:17;34.00;81.70
8178;DHT22;4130;48.740;9.132;2023-08-24T14:27:44;33.80;81.50
8178;DHT22;4130;48.740;9.132;2023-08-24T14:30:12;33.60;81.80
8178;DHT22;4130;48.740;9.132;2023-08-24T14:32:39;33.50;81.60
8178;DHT22;4130;48.740;9.132;2023-08-24T14:35:06;33.40;81.90
8178;DHT22;4130;48.740;9.132;2023-08-24T14:37:34;33.10;82.30
8178;DHT22;4130;48.740;9.132;2023-08-24T14:40:03;33.10;83.40
8178;DHT22;4130;48.740;9.132;2023-08-24T14:42:30;32.90;82.80
8178;DHT22;4130;48.740;9.132;2023-08-24T14:44:57;32.80;82.80
8178;DHT22;4130;48.740;9.132;2023-08-24T14:47:24;32.60;83.00
8178;DHT22;4130;48.740;9.132;2023-08-24T14:49:51;32.40;83.00
8178;DHT22;4130;48.740;9.132;2023-08-24T14:52:18;32.30;83.60
8178;DHT22;4130;48.740;9.132;2023-08-24T14:54:44;32.20;84.00
8178;DHT22;4130;48.740;9.132;2023-08-24T14:57:13;31.80;84.40
8178;DHT22;4130;48.740;9.132;2023-08-24T14:59:40;31.90;84.70
8178;DHT22;4130;48.740;9.132;2023-08-24T15:02:06;31.50;88.80
8178;DHT22;4130;48.740;9.132;2023-08-24T15:04:33;30.80;90.60
8178;DHT22;4130;48.740;9.132;2023-08-24T15:07:00;30.10;91.80
8178;DHT22;4130;48.740;9.132;2023-08-24T15:09:27;29.40;92.70
8178;DHT22;4130;48.740;9.132;2023-08-24T15:11:54;28.90;93.60
8178;DHT22;4130;48.740;9.132;2023-08-24T15:14:22;28.50;94.40
8178;DHT22;4130;48.740;9.132;2023-08-24T15:16:49;27.90;95.30
8178;DHT22;4130;48.740;9.132;2023-08-24T15:19:15;28.20;96.80
8178;DHT22;4130;48.740;9.132;2023-08-24T15:21:42;27.00;96.90
8178;DHT22;4130;48.740;9.132;2023-08-24T15:24:09;26.60;97.20
8178;DHT22;4130;48.740;9.132;2023-08-24T15:26:36;26.30;97.60
8178;DHT22;4130;48.740;9.132;2023-08-24T15:29:11;26.10;97.80
8178;DHT22;4130;48.740;9.132;2023-08-24T15:31:42;26.10;98.10
8178;DHT22;4130;48.740;9.132;2023-08-24T15:34:09;26.00;98.20
8178;DHT22;4130;48.740;9.132;2023-08-24T15:36:35;27.00;98.20
8178;DHT22;4130;48.740;9.132;2023-08-24T15:39:02;26.50;98.10
8178;DHT22;4130;48.740;9.132;2023-08-24T15:41:29;26.00;97.70
8178;DHT22;4130;48.740;9.132;2023-08-24T15:43:56;26.10;97.60
8178;DHT22;4130;48.740;9.132;2023-08-24T15:46:23;26.00;97.20
8178;DHT22;4130;48.740;9.132;2023-08-24T15:48:51;25.90;97.10
8178;DHT22;4130;48.740;9.132;2023-08-24T15:51:21;26.80;97.60
8178;DHT22;4130;48.740;9.132;2023-08-24T15:53:48;25.70;97.00
8178;DHT22;4130;48.740;9.132;2023-08-24T15:56:15;25.60;97.10
8178;DHT22;4130;48.740;9.132;2023-08-24T15:58:42;25.60;97.40
8178;DHT22;4130;48.740;9.132;2023-08-24T16:01:09;25.70;97.70
8178;DHT22;4130;48.740;9.132;2023-08-24T16:03:35;25.50;97.70
8178;DHT22;4130;48.740;9.132;2023-08-24T16:06:04;25.40;97.90